createdAt,value
2023-01-10T00:39:12.919Z,34.10
2023-01-10T00:42:00.741Z,34.20
2023-01-10T00:44:30.291Z,34.20
2023-01-10T00:46:59.745Z,33.70
2023-01-10T00:49:29.059Z,33.90
2023-01-10T00:52:00.179Z,33.30
2023-01-10T00:54:29.992Z,33.70
2023-01-10T00:56:59.328Z,34.10
2023-01-10T00:59:28.811Z,34.60
2023-01-10T01:01:58.642Z,34.50
2023-01-10T01:04:28.093Z,34.20
2023-01-10T01:07:00.032Z,33.40
2023-01-10T01:09:30.603Z,34.50
2023-01-10T01:12:01.026Z,34.60
2023-01-10T01:14:30.784Z,34.70
2023-01-10T01:17:00.609Z,34.70
2023-01-10T01:19:31.504Z,34.60
2023-01-10T01:22:01.281Z,34.40
2023-01-10T01:24:30.669Z,33.70
2023-01-10T01:27:00.426Z,33.50
2023-01-10T01:29:42.357Z,33.40
2023-01-10T01:32:12.580Z,34.30
2023-01-10T01:34:43.761Z,34.20
2023-01-10T01:37:14.247Z,33.70
2023-01-10T01:39:43.746Z,33.30
2023-01-10T01:42:23.824Z,33.40
2023-01-10T01:45:28.567Z,32.80
2023-01-10T01:48:03.038Z,32.60
2023-01-10T01:51:06.958Z,32.40
2023-01-10T01:53:46.623Z,33.50
2023-01-10T01:56:25.823Z,32.10
2023-01-10T01:58:58.952Z,32.20
2023-01-10T02:01:30.289Z,31.90
2023-01-10T02:04:19.782Z,33.60
2023-01-10T02:06:51.073Z,33.90
2023-01-10T02:09:26.080Z,32.80
2023-01-10T02:11:56.463Z,33.20
2023-01-10T02:14:27.068Z,33.00
2023-01-10T02:16:56.421Z,32.60
2023-01-10T02:19:25.804Z,31.30
2023-01-10T02:22:14.287Z,32.40
2023-01-10T02:25:02.046Z,32.50
2023-01-10T02:27:40.770Z,32.60
2023-01-10T02:30:28.974Z,32.60
2023-01-10T02:33:05.424Z,32.30
2023-01-10T02:35:45.150Z,32.20
2023-01-10T02:38:33.373Z,32.20
2023-01-10T02:41:09.341Z,32.20
2023-01-10T02:43:44.900Z,32.50
2023-01-10T02:46:26.545Z,32.50
2023-01-10T02:48:57.114Z,32.60
2023-01-10T02:51:30.857Z,31.80
2023-01-10T02:54:06.468Z,32.10
2023-01-10T02:56:38.966Z,31.80
2023-01-10T02:59:15.585Z,31.50
2023-01-10T03:01:51.582Z,31.60
2023-01-10T03:04:30.545Z,32.50
2023-01-10T03:07:20.111Z,31.40
2023-01-10T03:09:52.427Z,31.20
2023-01-10T03:12:27.572Z,31.20
2023-01-10T03:14:57.785Z,31.40
2023-01-10T03:17:28.618Z,30.80
2023-01-10T03:36:01.832Z,34.00
2023-01-10T06:26:58.807Z,39.10
2023-01-10T06:29:29.534Z,39.10
2023-01-10T06:32:01.323Z,39.10
2023-01-10T06:34:34.908Z,39.30
2023-01-10T06:37:25.336Z,39.20
2023-01-10T06:42:45.480Z,39.70
2023-01-10T06:45:15.047Z,39.60
2023-01-10T06:47:51.488Z,40.00
2023-01-10T06:50:37.913Z,40.40
2023-01-10T06:53:08.206Z,40.60
2023-01-10T06:55:38.234Z,41.00
2023-01-10T06:58:07.886Z,41.00
2023-01-10T07:00:37.549Z,41.10
2023-01-10T07:03:07.310Z,41.20
2023-01-10T07:05:38.260Z,41.30
2023-01-10T07:08:08.953Z,41.10
2023-01-10T07:11:17.520Z,41.30
2023-01-10T07:13:47.104Z,41.10
2023-01-10T07:16:32.147Z,41.40
2023-01-10T07:19:07.369Z,41.50
2023-01-10T07:21:45.795Z,42.00
2023-01-10T07:24:33.088Z,41.70
2023-01-10T07:27:11.591Z,41.80
2023-01-10T07:29:41.213Z,41.90
2023-01-10T07:32:10.932Z,42.00
2023-01-10T07:34:40.457Z,42.00
2023-01-10T07:37:09.967Z,42.00
2023-01-10T07:39:39.779Z,42.30
2023-01-10T07:42:09.278Z,42.40
2023-01-10T07:44:39.809Z,42.50
2023-01-10T07:47:10.536Z,42.80
2023-01-10T07:49:40.048Z,42.70
2023-01-10T07:52:11.280Z,43.10
2023-01-10T07:54:40.802Z,43.10
2023-01-10T07:57:10.340Z,43.20
2023-01-10T07:59:41.090Z,43.50
2023-01-10T08:02:12.192Z,43.80
2023-01-10T08:04:41.800Z,44.00
2023-01-10T08:07:11.273Z,44.10
2023-01-10T08:09:40.797Z,44.20
2023-01-10T08:12:10.554Z,44.70
2023-01-10T08:14:41.139Z,45.00
2023-01-10T08:17:11.811Z,45.10
2023-01-10T08:19:41.331Z,45.50
2023-01-10T08:22:11.078Z,45.50
2023-01-10T08:24:41.098Z,45.70
2023-01-10T08:27:10.749Z,45.30
2023-01-10T08:29:40.246Z,45.80
2023-01-10T08:32:10.303Z,46.10
2023-01-10T08:34:39.845Z,46.60
2023-01-10T08:37:09.375Z,46.80
2023-01-10T08:39:40.991Z,46.90
2023-01-10T08:42:10.537Z,46.40
2023-01-10T08:44:40.108Z,46.40
2023-01-10T08:47:09.790Z,46.50
2023-01-10T08:49:39.268Z,46.60
2023-01-10T08:52:08.769Z,47.00
2023-01-10T08:54:38.439Z,46.90
2023-01-10T08:57:09.034Z,47.40
2023-01-10T08:59:39.001Z,47.40
2023-01-10T09:02:10.206Z,47.40
2023-01-10T09:04:39.884Z,47.90
2023-01-10T09:07:09.407Z,48.10
2023-01-10T09:09:39.881Z,48.20
2023-01-10T09:12:29.608Z,48.50
2023-01-10T09:14:59.173Z,49.10
2023-01-10T09:17:28.794Z,49.40
2023-01-10T09:19:58.453Z,49.30
2023-01-10T09:22:29.054Z,48.80
2023-01-10T09:24:59.181Z,48.60
2023-01-10T09:27:28.831Z,48.70
2023-01-10T09:29:59.596Z,48.90
2023-01-10T09:32:29.283Z,49.00
2023-01-10T09:34:58.843Z,49.50
2023-01-10T09:37:28.818Z,49.90
2023-01-10T09:39:59.492Z,50.00
2023-01-10T09:42:40.975Z,50.00
2023-01-10T09:45:25.831Z,50.10
2023-01-10T09:47:57.911Z,50.50
2023-01-10T09:50:36.027Z,50.10
2023-01-10T09:53:08.052Z,50.00
2023-01-10T09:55:39.439Z,50.10
2023-01-10T09:58:17.629Z,50.40
2023-01-10T10:00:53.291Z,50.70
2023-01-10T10:03:41.366Z,50.80
2023-01-10T10:06:15.475Z,51.50
2023-01-10T10:08:46.581Z,52.20
2023-01-10T10:11:25.285Z,52.30
2023-01-10T10:14:10.273Z,52.40
2023-01-10T10:16:48.350Z,52.50
2023-01-10T10:19:28.197Z,53.30
2023-01-10T10:22:00.662Z,53.50
2023-01-10T10:24:32.905Z,53.70
2023-01-10T10:27:11.166Z,53.80
2023-01-10T10:29:43.658Z,53.90
2023-01-10T10:32:23.066Z,53.60
2023-01-10T10:34:58.087Z,53.90
2023-01-10T10:37:38.169Z,54.00
2023-01-10T10:40:16.859Z,53.80
2023-01-10T10:42:54.665Z,54.30
2023-01-10T10:45:27.475Z,54.90
2023-01-10T10:48:03.063Z,55.10
2023-01-10T10:50:47.756Z,55.40
2023-01-10T10:53:17.904Z,55.20
2023-01-10T10:55:47.996Z,55.30
2023-01-10T10:58:17.524Z,55.40
2023-01-10T11:00:48.164Z,56.10
2023-01-10T11:03:29.803Z,56.20
2023-01-10T11:06:00.124Z,56.80
2023-01-10T11:08:31.084Z,57.40
2023-01-10T11:11:02.589Z,57.60
2023-01-10T11:13:34.907Z,58.00
2023-01-10T11:16:06.763Z,58.40
2023-01-10T11:18:40.012Z,58.40
2023-01-10T11:21:22.100Z,58.60
2023-01-10T11:23:53.326Z,59.00
2023-01-10T11:26:30.542Z,58.80
2023-01-10T11:29:26.005Z,59.10
2023-01-10T11:31:56.421Z,58.70
2023-01-10T11:34:26.015Z,59.40
2023-01-10T16:55:47.715Z,70.10
2023-01-10T16:58:17.962Z,70.00
2023-01-10T17:00:49.057Z,70.00
2023-01-10T17:03:25.074Z,70.30
2023-01-10T17:05:54.851Z,69.90
2023-01-10T17:08:25.786Z,69.70
2023-01-10T17:10:58.598Z,70.10
2023-01-10T17:13:38.489Z,70.00
2023-01-10T17:16:08.410Z,69.90
2023-01-10T17:18:39.488Z,70.00
2023-01-10T17:21:09.197Z,70.20
2023-01-10T17:23:38.704Z,70.10
2023-01-10T17:26:08.263Z,69.80
2023-01-10T17:28:38.255Z,69.90
2023-01-10T17:31:07.787Z,69.80
2023-01-10T17:33:37.736Z,69.60
2023-01-10T17:36:07.509Z,69.80
2023-01-10T17:38:36.999Z,69.60
2023-01-10T17:41:06.532Z,69.60
2023-01-10T17:43:36.188Z,69.80
2023-01-10T17:46:07.344Z,69.70
2023-01-10T17:48:37.745Z,69.90
2023-01-10T17:51:07.328Z,70.00
2023-01-10T18:06:22.798Z,69.90
2023-01-10T18:08:53.115Z,69.70
2023-01-10T18:11:23.002Z,69.60
2023-01-10T18:13:53.640Z,69.80
2023-01-10T18:16:25.070Z,69.90
2023-01-10T18:18:56.565Z,69.60
2023-01-10T18:21:26.218Z,69.90
2023-01-10T18:24:04.427Z,69.80
2023-01-10T18:26:34.074Z,69.60
2023-01-10T18:29:03.621Z,69.90
2023-01-10T18:31:33.511Z,69.60
2023-01-10T18:34:03.049Z,69.60
2023-01-10T18:36:33.377Z,69.70
2023-01-10T18:39:05.004Z,69.80
2023-01-10T18:41:34.578Z,70.10
2023-01-10T18:44:04.137Z,70.00
2023-01-10T18:46:34.035Z,69.90
2023-01-10T18:49:03.614Z,70.00
2023-01-10T18:51:33.173Z,69.70
2023-01-10T18:54:03.200Z,69.40
2023-01-10T18:56:32.727Z,69.20
2023-01-10T18:59:02.215Z,69.40
2023-01-10T19:01:33.806Z,69.20
2023-01-10T19:04:06.956Z,68.80
2023-01-10T19:06:36.696Z,68.80
2023-01-10T19:09:06.345Z,68.90
2023-01-10T19:11:36.826Z,68.70
2023-01-10T19:14:06.495Z,68.80
2023-01-10T19:16:36.164Z,68.90
2023-01-10T19:19:08.173Z,68.80
2023-01-10T19:21:40.536Z,68.20
2023-01-10T19:24:17.527Z,68.20
2023-01-10T19:26:47.010Z,68.30
2023-01-10T19:29:17.585Z,68.20
2023-01-10T19:31:49.881Z,67.90
2023-01-10T19:34:19.527Z,67.70
2023-01-10T19:36:49.033Z,67.50
2023-01-10T19:39:18.630Z,67.50
2023-01-10T19:41:48.148Z,67.70
2023-01-10T19:44:18.637Z,67.60
2023-01-10T19:46:49.193Z,67.90
2023-01-10T19:49:21.049Z,67.70
2023-01-10T19:51:52.775Z,67.50
2023-01-10T19:54:22.443Z,67.50
2023-01-10T19:56:53.194Z,67.90
2023-01-10T19:59:22.726Z,67.10
2023-01-10T20:01:53.456Z,66.50
2023-01-10T20:06:49.275Z,66.90
2023-01-10T20:09:18.943Z,66.80
2023-01-10T20:11:48.560Z,67.50
2023-01-10T20:14:22.374Z,67.20
2023-01-10T20:16:53.852Z,66.90
2023-01-10T20:19:24.361Z,66.90
2023-01-10T20:21:53.897Z,67.30
2023-01-10T20:24:23.613Z,66.50
2023-01-10T20:26:53.853Z,66.60
2023-01-10T20:29:23.411Z,66.80
2023-01-10T20:31:57.446Z,66.50
2023-01-10T20:34:26.920Z,66.70
2023-01-10T20:36:56.744Z,66.70
2023-01-10T20:39:32.227Z,66.10
2023-01-10T20:42:01.983Z,66.00
2023-01-10T20:44:33.093Z,66.00
2023-01-10T20:47:02.679Z,65.60
2023-01-10T20:49:32.215Z,65.80
2023-01-10T20:52:02.749Z,65.70
2023-01-10T20:54:32.270Z,65.40
2023-01-10T20:57:01.910Z,65.00
2023-01-10T20:59:31.408Z,65.30
2023-01-10T21:02:02.343Z,64.90
2023-01-10T21:04:31.976Z,64.90
2023-01-10T21:23:38.770Z,63.60
2023-01-10T21:26:09.776Z,63.20
2023-01-10T21:28:40.789Z,62.80
2023-01-10T21:31:13.901Z,62.60
2023-01-10T21:33:44.010Z,62.60
2023-01-10T21:36:15.060Z,62.20
2023-01-10T21:38:45.437Z,61.70
2023-01-10T21:41:16.173Z,61.80
2023-01-10T21:43:47.818Z,61.50
2023-01-10T21:46:19.350Z,61.50
2023-01-10T21:48:48.972Z,61.30
2023-01-10T21:51:18.477Z,61.80
2023-01-10T21:53:47.974Z,61.40
2023-01-10T21:56:17.508Z,62.00
2023-01-10T21:58:48.524Z,62.10
2023-01-10T22:01:18.600Z,61.40
2023-01-10T22:03:48.523Z,61.50
2023-01-10T22:06:18.315Z,61.60
2023-01-10T22:08:49.124Z,61.70
2023-01-10T22:11:18.655Z,62.10
2023-01-10T22:13:50.131Z,61.50
2023-01-10T22:16:20.228Z,61.10
2023-01-10T22:18:50.657Z,60.40
2023-01-10T22:21:21.337Z,60.60
